Iron Station, NC

5:58 PM EDT on June 03, 2015 (GMT -0400)
Charlotte-Douglas International | | Change Station
CLOSE
Current Station
Airport
Location: Charlotte,
Elevation: 748 ft
Nearby Weather Stations

Elev 748 ft 35.22 °N, 80.95 °W | Updated 6 minutes ago

Overcast
Overcast
69 °F
Feels Like 69 °F
N
10
Wind Variable Wind from NE

Today
High -- | Low -- °F
--% Chance of Precip.
Yesterday
High -- | Low -- °F
Precip. -- in
6:10 AM 8:35 PM
Full, 98% visible
Pressure 30.02 in
Visibility 10.0 miles
Clouds Mostly Cloudy 1400 ft
Overcast 1800 ft
Dew Point 60 °F
Humidity 73%
Rainfall 0.02 in
Snow Depth Not available.
UV 1 out of 12
Pollen 3.40 out of 12
Air Quality Not available.
Flu Activity No Activity
METAR KCLT 032152Z 04009KT 10SM BKN014 OVC018 21/16 A3004 RMK AO2 SLP165 T02060156

More Conditions Fewer Conditions

Pressure 30.02 in
Visibility 10.0 miles
Clouds Mostly Cloudy 1400 ft
Overcast 1800 ft
Dew Point 60 °F
Humidity 73%
Rainfall 0.02 in
Snow Depth Not available.
UV 1 out of 12
Pollen 3.40 out of 12
Air Quality Not available.
Flu Activity No Activity
METAR KCLT 032152Z 04009KT 10SM BKN014 OVC018 21/16 A3004 RMK AO2 SLP165 T02060156

More Conditions Fewer Conditions

10-Day Weather Forecast

×

Almanac

Astronomy

Jun. 03, 2015 Rise Set
Actual Time
Civil Twilight
Nautical Twilight
Astronomical Twilight
Moon
Length of Visible Light
Length of Day
Tomorrow will be .
, % of the Moon is Illuminated

Today's Extremes

State Highs State Lows

Community

WunderPhotos

Upload Photos

1,826,291 photos uploaded!

WunderBlogs® & News

Nearby

Air Quality

  Air Quality AQ Index Pollutant
Not available.

Snow Depth

Station Depth Elevation

Earthquake Activity

City Distance Mag. Time & Date
Minimum magnitude displayed is 2.5.

Coastal Water Temperatures

Place Temperature

Stations

Nearby Weather Stations

Station Location Temp. Windchill Dew Point Humidity Wind Precip. Elev Updated Type